createdAt,value
2023-01-19T00:00:13.096Z,1.05
2023-01-19T00:08:56.046Z,0.96
2023-01-19T00:17:19.256Z,0.93
2023-01-19T00:25:44.234Z,0.89
2023-01-19T00:34:07.954Z,0.86
2023-01-19T00:42:46.155Z,0.82
2023-01-19T00:51:09.165Z,0.72
2023-01-19T00:59:32.214Z,0.71
2023-01-19T01:07:55.305Z,0.61
2023-01-19T01:16:18.336Z,0.37
2023-01-19T01:24:41.276Z,0.29
2023-01-19T01:33:04.131Z,0.25
2023-01-19T01:41:27.799Z,0.01
2023-01-19T01:50:03.296Z,-0.18
2023-01-19T01:58:27.122Z,-0.36
2023-01-19T02:07:09.318Z,-0.47
2023-01-19T02:15:33.766Z,-0.58
2023-01-19T02:23:59.013Z,-0.69
2023-01-19T02:32:21.888Z,-0.85
2023-01-19T02:40:47.379Z,-0.96
2023-01-19T02:49:10.269Z,-0.96
2023-01-19T02:58:09.954Z,-1.01
2023-01-19T03:06:39.039Z,-1.00
2023-01-19T03:15:37.697Z,-0.96
2023-01-19T03:24:04.104Z,-1.03
2023-01-19T03:32:37.745Z,-1.12
2023-01-19T03:41:05.331Z,-1.20
2023-01-19T03:49:31.663Z,-1.26
2023-01-19T03:57:54.630Z,-1.23
2023-01-19T04:06:18.580Z,-1.14
2023-01-19T04:14:42.786Z,-1.11
2023-01-19T04:23:05.728Z,-1.09
2023-01-19T04:31:28.605Z,-1.01
2023-01-19T04:39:51.598Z,-0.96
2023-01-19T04:48:15.469Z,-0.89
2023-01-19T04:56:38.729Z,-0.79
2023-01-19T05:05:02.238Z,-0.75
2023-01-19T05:13:25.298Z,-0.75
2023-01-19T05:21:48.236Z,-0.63
2023-01-19T05:30:13.333Z,-0.42
2023-01-19T05:38:36.319Z,-0.38
2023-01-19T05:46:59.312Z,-0.35
2023-01-19T05:55:22.407Z,-0.25
2023-01-19T06:03:45.354Z,-0.17
2023-01-19T06:12:08.405Z,-0.13
2023-01-19T06:20:31.322Z,-0.07
2023-01-19T06:28:59.524Z,-0.04
2023-01-19T06:37:26.918Z,-0.08
2023-01-19T06:45:53.364Z,-0.04
2023-01-19T06:54:17.588Z,0.06
2023-01-19T07:02:44.875Z,0.06
2023-01-19T07:11:26.219Z,0.04
2023-01-19T07:20:07.699Z,0.08
2023-01-19T07:28:31.732Z,0.13
2023-01-19T07:36:56.178Z,0.20
2023-01-19T07:45:20.928Z,0.24
2023-01-19T07:53:45.181Z,0.31
2023-01-19T08:02:11.716Z,0.45
2023-01-19T08:10:35.288Z,0.58
2023-01-19T08:18:58.369Z,0.73
2023-01-19T08:27:21.825Z,0.93
2023-01-19T08:35:49.078Z,1.03
2023-01-19T08:44:12.113Z,1.05
2023-01-19T08:52:35.763Z,1.04
2023-01-19T09:01:00.696Z,1.00
2023-01-19T09:09:25.058Z,0.92
2023-01-19T09:17:47.965Z,0.89
2023-01-19T09:26:11.748Z,0.97
2023-01-19T09:34:35.316Z,0.98
2023-01-19T09:43:14.289Z,0.99
2023-01-19T09:51:41.990Z,1.01
2023-01-19T10:00:18.221Z,0.98
2023-01-19T10:08:53.142Z,1.00
2023-01-19T10:17:38.930Z,1.08
2023-01-19T10:26:14.651Z,1.15
2023-01-19T10:34:37.632Z,1.21
2023-01-19T10:43:01.019Z,1.31
2023-01-19T10:51:24.618Z,1.34
2023-01-19T10:59:52.460Z,1.28
2023-01-19T11:08:29.770Z,1.29
2023-01-19T11:16:58.256Z,1.36
2023-01-19T11:25:32.939Z,1.36
2023-01-19T11:34:01.123Z,1.35
2023-01-19T11:42:25.641Z,1.39
2023-01-19T11:50:50.176Z,1.40
2023-01-19T11:59:14.057Z,1.44
2023-01-19T12:07:38.866Z,1.54
2023-01-19T12:16:20.125Z,1.57
2023-01-19T12:24:56.442Z,1.56
2023-01-19T12:33:35.231Z,1.61
2023-01-19T12:42:17.566Z,1.67
2023-01-19T12:50:46.745Z,1.75
2023-01-19T12:59:25.595Z,1.71
2023-01-19T13:08:07.326Z,1.59
2023-01-19T13:16:31.676Z,1.54
2023-01-19T13:25:11.015Z,1.56
2023-01-19T13:33:44.154Z,1.53
2023-01-19T13:42:15.986Z,1.53
2023-01-19T13:50:40.202Z,1.59
2023-01-19T13:59:05.142Z,1.65
2023-01-19T14:07:28.069Z,1.67
2023-01-19T14:15:55.211Z,1.63
2023-01-19T14:24:24.953Z,1.53
2023-01-19T14:32:47.882Z,1.33
2023-01-19T14:41:13.615Z,1.20
2023-01-19T14:49:40.406Z,1.17
2023-01-19T14:58:16.622Z,1.13
2023-01-19T15:06:43.290Z,1.05
2023-01-19T15:15:13.021Z,1.02
2023-01-19T15:23:36.065Z,1.05
2023-01-19T15:31:59.440Z,1.02
2023-01-19T15:40:23.490Z,0.96
2023-01-19T15:48:48.226Z,0.93
2023-01-19T15:57:11.291Z,0.88
2023-01-19T16:05:42.483Z,0.80
2023-01-19T16:14:06.334Z,0.64
2023-01-19T16:22:31.807Z,0.57
2023-01-19T16:30:55.266Z,0.56
2023-01-19T16:39:18.424Z,0.57
2023-01-19T16:47:41.352Z,0.56
2023-01-19T16:56:09.137Z,0.55
2023-01-19T17:04:32.259Z,0.47
2023-01-19T17:12:55.594Z,0.36
2023-01-19T17:21:23.262Z,0.33
2023-01-19T17:29:47.669Z,0.20
2023-01-19T17:38:12.770Z,0.18
2023-01-19T17:46:43.968Z,0.19
2023-01-19T17:55:08.135Z,0.18
2023-01-19T18:03:32.050Z,0.09
2023-01-19T18:11:57.131Z,0.08
2023-01-19T18:20:20.806Z,0.11
2023-01-19T18:28:44.775Z,0.09
2023-01-19T18:37:07.745Z,0.03
2023-01-19T18:45:30.801Z,0.03
2023-01-19T18:53:54.248Z,0.08
2023-01-19T19:02:17.454Z,0.06
2023-01-19T19:10:41.817Z,0.04
2023-01-19T19:19:05.041Z,0.10
2023-01-19T19:27:28.004Z,0.10
2023-01-19T19:35:56.624Z,0.06
2023-01-19T19:44:19.452Z,0.05
2023-01-19T19:52:42.429Z,0.05
2023-01-19T20:01:13.594Z,0.03
2023-01-19T20:09:37.115Z,-0.03
2023-01-19T20:17:59.992Z,-0.03
2023-01-19T20:26:26.866Z,0.01
2023-01-19T20:34:49.833Z,0.02
2023-01-19T20:43:12.946Z,-0.03
2023-01-19T20:51:44.013Z,-0.05
2023-01-19T21:00:28.413Z,0.01
2023-01-19T21:08:51.920Z,0.03
2023-01-19T21:17:15.015Z,-0.01
2023-01-19T21:25:38.396Z,-0.03
2023-01-19T21:34:01.650Z,0.04
2023-01-19T21:42:24.626Z,0.06
2023-01-19T21:50:56.669Z,0.06
2023-01-19T21:59:20.443Z,0.09
2023-01-19T22:07:44.005Z,0.08
2023-01-19T22:16:16.778Z,0.03
2023-01-19T22:24:39.943Z,0.05
2023-01-19T22:33:02.904Z,0.12
2023-01-19T22:41:29.260Z,0.09
2023-01-19T22:49:52.183Z,0.10
2023-01-19T22:58:15.184Z,0.09
2023-01-19T23:06:38.695Z,0.00
2023-01-19T23:15:01.763Z,-0.12
2023-01-19T23:23:24.758Z,-0.14
2023-01-19T23:31:49.227Z,-0.06
2023-01-19T23:40:12.554Z,-0.05
2023-01-19T23:48:36.095Z,-0.09
2023-01-19T23:56:59.309Z,-0.07
